createdAt,value
2019-04-14T00:02:33.646Z,30.23
2019-04-14T00:05:03.886Z,28.57
2019-04-14T00:07:31.892Z,27.70
2019-04-14T00:09:58.983Z,27.67
2019-04-14T00:12:27.255Z,26.47
2019-04-14T00:14:55.450Z,26.33
2019-04-14T00:17:23.588Z,25.63
2019-04-14T00:19:50.875Z,27.20
2019-04-14T00:22:18.404Z,27.63
2019-04-14T00:24:46.639Z,28.33
2019-04-14T00:27:14.875Z,28.63
2019-04-14T00:29:42.041Z,27.90
2019-04-14T00:32:09.550Z,27.57
2019-04-14T00:34:50.816Z,28.17
2019-04-14T00:37:46.723Z,27.03
2019-04-14T00:40:27.087Z,27.43
2019-04-14T00:43:19.975Z,27.43
2019-04-14T00:45:55.076Z,27.60
2019-04-14T00:48:24.287Z,28.77
2019-04-14T00:50:52.411Z,28.57
2019-04-14T00:53:20.567Z,26.57
2019-04-14T00:55:48.921Z,28.13
2019-04-14T00:58:17.066Z,28.40
2019-04-14T01:00:45.130Z,26.60
2019-04-14T01:03:13.375Z,27.67
2019-04-14T01:05:41.516Z,28.50
2019-04-14T01:08:09.652Z,27.90
2019-04-14T01:10:39.007Z,27.67
2019-04-14T01:13:11.119Z,27.33
2019-04-14T01:15:49.224Z,26.63
2019-04-14T01:18:07.915Z,29.30
2019-04-14T01:20:36.305Z,28.90
2019-04-14T01:23:04.194Z,29.10
2019-04-14T01:25:36.774Z,29.47
2019-04-14T01:28:04.662Z,30.00
2019-04-14T01:30:37.604Z,29.60
2019-04-14T01:33:05.432Z,27.83
2019-04-14T01:35:33.486Z,29.00
2019-04-14T01:38:01.624Z,30.13
2019-04-14T01:40:29.278Z,29.97
2019-04-14T01:42:57.310Z,29.77
2019-04-14T01:45:25.346Z,30.60
2019-04-14T01:47:53.349Z,29.73
2019-04-14T01:50:23.533Z,30.93
2019-04-14T01:52:57.306Z,30.40
2019-04-14T01:55:50.496Z,30.23
2019-04-14T01:58:20.752Z,30.40
2019-04-14T02:00:55.401Z,30.37
2019-04-14T02:03:23.778Z,30.43
2019-04-14T02:05:51.712Z,31.50
2019-04-14T02:08:19.819Z,31.87
2019-04-14T02:10:47.863Z,31.87
2019-04-14T02:13:15.705Z,35.20
2019-04-14T02:15:44.161Z,33.83
2019-04-14T02:18:12.133Z,33.37
2019-04-14T02:20:40.785Z,33.33
2019-04-14T02:23:08.264Z,32.80
2019-04-14T02:25:36.067Z,33.53
2019-04-14T02:28:03.133Z,33.43
2019-04-14T02:30:36.208Z,40.77
2019-04-14T02:33:32.147Z,44.27
2019-04-14T02:36:06.317Z,50.30
2019-04-14T02:38:36.065Z,50.93
2019-04-14T02:41:13.703Z,48.23
2019-04-14T02:43:25.796Z,40.10
2019-04-14T02:45:50.490Z,38.27
2019-04-14T02:50:51.497Z,34.83
2019-04-14T02:55:48.948Z,37.17
2019-04-14T02:58:20.263Z,35.63
2019-04-14T03:03:15.994Z,36.57
2019-04-14T03:05:45.041Z,38.37
2019-04-14T03:08:11.414Z,41.13
2019-04-14T03:10:41.371Z,40.10
2019-04-14T03:13:13.090Z,38.13
2019-04-14T03:18:33.934Z,35.60
2019-04-14T03:21:13.449Z,35.83
2019-04-14T03:23:51.894Z,35.27
2019-04-14T03:26:21.238Z,37.53
2019-04-14T03:28:51.707Z,35.37
2019-04-14T03:31:53.684Z,36.00
2019-04-14T03:34:17.583Z,36.17
2019-04-14T03:37:11.398Z,35.10
2019-04-14T03:43:41.787Z,35.27
2019-04-14T03:51:16.773Z,36.37
2019-04-14T03:53:42.835Z,39.37
2019-04-14T03:56:24.529Z,38.37
2019-04-14T03:58:51.641Z,36.50
2019-04-14T04:01:19.333Z,39.33
2019-04-14T04:03:46.485Z,37.33
2019-04-14T04:06:13.951Z,37.13
2019-04-14T04:08:42.021Z,36.70
2019-04-14T04:11:10.455Z,35.50
2019-04-14T04:13:37.683Z,38.47
2019-04-14T04:16:13.908Z,38.73
2019-04-14T04:18:50.939Z,37.57
2019-04-14T04:21:35.620Z,36.43
2019-04-14T04:24:35.142Z,36.57
2019-04-14T04:27:24.647Z,35.10
2019-04-14T04:30:14.413Z,38.20
2019-04-14T04:32:51.916Z,37.33
2019-04-14T04:35:30.340Z,35.10
2019-04-14T04:38:18.103Z,34.23
2019-04-14T04:40:46.138Z,34.53
2019-04-14T04:43:13.226Z,35.43
2019-04-14T04:45:40.890Z,35.37
2019-04-14T04:48:08.946Z,37.47
2019-04-14T04:50:36.852Z,40.03
2019-04-14T04:53:04.805Z,40.30
2019-04-14T04:55:32.903Z,40.77
2019-04-14T04:58:01.267Z,41.10
2019-04-14T05:00:28.781Z,40.30
2019-04-14T05:02:57.061Z,43.60
2019-04-14T05:06:00.426Z,41.37
2019-04-14T05:08:28.388Z,44.57
2019-04-14T05:11:05.459Z,44.20
2019-04-14T05:13:36.054Z,45.23
2019-04-14T05:16:04.185Z,45.77
2019-04-14T05:18:31.390Z,44.47
2019-04-14T05:20:59.518Z,46.73
2019-04-14T05:23:27.777Z,45.00
2019-04-14T05:25:55.938Z,46.93
2019-04-14T05:28:24.398Z,46.07
2019-04-14T05:30:52.541Z,46.83
2019-04-14T05:33:20.723Z,45.03
2019-04-14T05:35:48.875Z,47.00
2019-04-14T05:38:16.937Z,42.37
2019-04-14T05:40:45.076Z,45.77
2019-04-14T05:43:13.391Z,47.60
2019-04-14T05:45:41.649Z,43.93
2019-04-14T05:48:09.743Z,44.50
2019-04-14T05:50:37.936Z,45.93
2019-04-14T05:53:06.415Z,41.70
2019-04-14T05:55:35.140Z,44.47
2019-04-14T05:58:03.520Z,45.30
2019-04-14T06:00:31.986Z,40.97
2019-04-14T06:02:59.498Z,43.90
2019-04-14T06:05:27.487Z,41.70
2019-04-14T06:07:55.597Z,42.00
2019-04-14T06:10:22.759Z,42.20
2019-04-14T06:12:49.868Z,42.47
2019-04-14T06:15:16.907Z,40.70
2019-04-14T06:17:44.276Z,41.77
2019-04-14T06:20:17.114Z,44.70
2019-04-14T06:22:44.423Z,43.33
2019-04-14T06:25:11.503Z,42.77
2019-04-14T06:27:44.397Z,44.33
2019-04-14T06:30:34.158Z,42.00
2019-04-14T06:33:06.637Z,41.57
2019-04-14T06:35:47.389Z,42.73
2019-04-14T06:38:39.866Z,44.17
2019-04-14T06:41:24.999Z,46.87
2019-04-14T06:43:52.042Z,52.63
2019-04-14T06:46:19.116Z,54.70
2019-04-14T06:48:46.192Z,61.80
2019-04-14T06:51:13.235Z,61.60
2019-04-14T06:53:40.283Z,56.77
2019-04-14T06:56:08.030Z,49.77
2019-04-14T06:58:35.099Z,43.47
2019-04-14T07:01:02.329Z,42.93
2019-04-14T07:03:29.674Z,40.97
2019-04-14T07:05:56.735Z,44.03
2019-04-14T07:08:23.798Z,41.97
2019-04-14T07:10:50.900Z,42.80
2019-04-14T07:13:19.679Z,42.77
2019-04-14T07:15:46.887Z,40.77
2019-04-14T07:18:13.955Z,41.73
2019-04-14T07:20:41.026Z,41.53
2019-04-14T07:23:08.121Z,43.90
2019-04-14T07:25:35.203Z,43.07
2019-04-14T07:28:02.288Z,42.63
2019-04-14T07:30:44.504Z,41.13
2019-04-14T07:33:37.118Z,40.00
2019-04-14T07:36:19.910Z,38.87
2019-04-14T07:38:55.058Z,37.93
2019-04-14T07:41:30.367Z,36.97
2019-04-14T07:44:01.968Z,38.07
2019-04-14T07:46:41.689Z,40.63
2019-04-14T07:49:28.373Z,36.97
2019-04-14T07:52:15.002Z,37.60
2019-04-14T07:54:51.919Z,37.20
2019-04-14T07:57:37.305Z,37.23
2019-04-14T08:00:23.729Z,36.73
2019-04-14T08:02:54.765Z,37.57
2019-04-14T08:05:27.373Z,35.30
2019-04-14T08:07:54.447Z,36.83
2019-04-14T08:10:21.566Z,36.87
2019-04-14T08:12:48.674Z,36.93
2019-04-14T08:15:15.877Z,37.90
2019-04-14T08:17:43.717Z,38.60
2019-04-14T08:20:26.473Z,40.50
2019-04-14T08:22:43.055Z,38.00
2019-04-14T08:25:10.101Z,38.73
2019-04-14T08:27:37.223Z,38.50
2019-04-14T08:30:05.300Z,39.53
2019-04-14T08:32:32.378Z,38.90
2019-04-14T08:34:59.477Z,37.37
2019-04-14T08:37:26.619Z,35.90
2019-04-14T08:39:53.677Z,36.90
2019-04-14T08:42:38.036Z,34.37
2019-04-14T08:45:31.266Z,34.67
2019-04-14T08:48:35.912Z,35.60
2019-04-14T08:51:11.502Z,34.40
2019-04-14T08:53:51.475Z,35.07
2019-04-14T08:56:40.916Z,31.97
2019-04-14T08:59:36.722Z,34.57
2019-04-14T09:02:25.683Z,31.93
2019-04-14T09:05:12.381Z,33.03
2019-04-14T09:07:52.889Z,32.33
2019-04-14T09:10:26.388Z,30.83
2019-04-14T09:12:55.110Z,31.07
2019-04-14T09:15:22.184Z,30.77
2019-04-14T09:17:49.276Z,32.00
2019-04-14T09:20:16.332Z,28.43
2019-04-14T09:22:43.410Z,30.83
2019-04-14T09:25:10.515Z,28.40
2019-04-14T09:27:37.628Z,28.73
2019-04-14T09:30:05.315Z,29.37
2019-04-14T09:32:32.415Z,28.10
2019-04-14T09:34:59.458Z,27.67
2019-04-14T09:37:26.536Z,27.60
2019-04-14T09:39:53.684Z,24.83
2019-04-14T09:42:20.743Z,25.10
2019-04-14T09:44:47.794Z,25.70
2019-04-14T09:47:14.893Z,23.83
2019-04-14T09:49:42.303Z,24.00
2019-04-14T09:52:09.385Z,22.70
2019-04-14T09:54:43.962Z,22.80
2019-04-14T09:57:11.072Z,21.53
2019-04-14T09:59:38.137Z,21.10
2019-04-14T10:02:05.592Z,21.93
2019-04-14T10:04:32.767Z,23.07
2019-04-14T10:06:59.859Z,22.27
2019-04-14T10:09:27.161Z,21.00
2019-04-14T10:11:56.423Z,22.07
2019-04-14T10:14:23.291Z,21.50
2019-04-14T10:16:50.368Z,20.10
2019-04-14T10:19:33.400Z,20.63
2019-04-14T10:22:00.504Z,19.27
2019-04-14T10:24:27.627Z,19.50
2019-04-14T10:26:54.700Z,19.30
2019-04-14T10:29:21.803Z,20.60
2019-04-14T10:31:48.878Z,18.57
2019-04-14T10:34:15.939Z,19.53
2019-04-14T10:36:43.278Z,18.30
2019-04-14T10:39:10.343Z,18.90
2019-04-14T10:41:37.405Z,18.67
2019-04-14T10:44:04.506Z,17.60
2019-04-14T10:46:31.600Z,19.13
2019-04-14T10:48:58.710Z,18.17
2019-04-14T10:51:30.244Z,18.37
2019-04-14T10:53:54.759Z,18.53
2019-04-14T10:56:21.842Z,18.50
2019-04-14T10:58:48.952Z,19.23
2019-04-14T11:01:16.146Z,18.80
2019-04-14T11:03:43.491Z,16.60
2019-04-14T11:06:24.913Z,17.97
2019-04-14T11:08:52.049Z,17.07
2019-04-14T11:11:19.143Z,16.33
2019-04-14T11:13:46.244Z,16.40
2019-04-14T11:16:13.697Z,16.23
2019-04-14T11:18:46.126Z,16.83
2019-04-14T11:21:13.504Z,17.03
2019-04-14T11:23:40.999Z,16.23
2019-04-14T11:26:08.064Z,15.40
2019-04-14T11:28:35.134Z,16.77
2019-04-14T11:31:02.182Z,15.13
2019-04-14T11:33:34.648Z,15.43
2019-04-14T11:36:30.043Z,14.43
2019-04-14T11:39:09.073Z,16.07
2019-04-14T11:41:36.300Z,16.03
2019-04-14T11:44:03.660Z,15.23
2019-04-14T11:46:31.032Z,14.13
2019-04-14T11:48:58.110Z,13.97
2019-04-14T11:51:25.499Z,14.17
2019-04-14T11:53:52.613Z,14.43
2019-04-14T11:56:19.687Z,13.20
2019-04-14T11:58:46.788Z,13.97
2019-04-14T12:01:31.892Z,14.20
2019-04-14T12:04:14.152Z,13.93
2019-04-14T12:07:18.935Z,14.03
2019-04-14T12:09:50.791Z,13.27
2019-04-14T12:12:17.832Z,13.57
2019-04-14T12:14:44.914Z,13.23
2019-04-14T12:17:11.991Z,14.27
2019-04-14T12:19:39.063Z,14.50
2019-04-14T12:22:08.633Z,14.23
2019-04-14T12:24:35.135Z,14.43
2019-04-14T12:27:06.957Z,14.17
2019-04-14T12:29:34.786Z,14.70
2019-04-14T12:32:03.874Z,13.73
2019-04-14T12:34:31.041Z,13.87
2019-04-14T12:36:58.131Z,13.80
2019-04-14T12:39:25.296Z,13.63
2019-04-14T12:42:05.093Z,13.60
2019-04-14T12:44:50.306Z,13.37
2019-04-14T12:47:40.128Z,13.97
2019-04-14T12:50:10.270Z,14.00
2019-04-14T12:52:37.343Z,13.87
2019-04-14T12:55:04.854Z,13.90
2019-04-14T12:57:34.369Z,13.97
2019-04-14T13:00:01.491Z,13.13
2019-04-14T13:02:31.406Z,13.43
2019-04-14T13:04:58.423Z,14.00
2019-04-14T13:07:25.500Z,13.37
2019-04-14T13:09:52.542Z,13.23
2019-04-14T13:12:19.823Z,13.23
2019-04-14T13:14:47.071Z,13.07
2019-04-14T13:17:14.146Z,12.33
2019-04-14T13:19:41.463Z,12.93
2019-04-14T13:22:09.543Z,12.10
2019-04-14T13:24:36.583Z,13.87
2019-04-14T13:27:03.886Z,12.93
2019-04-14T13:29:30.926Z,12.77
2019-04-14T13:31:58.066Z,12.27
2019-04-14T13:34:25.156Z,12.70
2019-04-14T13:36:52.231Z,13.20
2019-04-14T13:39:19.352Z,13.60
2019-04-14T13:41:46.458Z,12.43
2019-04-14T13:44:13.513Z,14.03
2019-04-14T13:46:40.670Z,12.53
2019-04-14T13:49:07.778Z,13.20
2019-04-14T13:51:34.830Z,12.50
2019-04-14T13:54:02.155Z,13.10
2019-04-14T13:56:29.234Z,12.80
2019-04-14T13:58:56.276Z,12.20
2019-04-14T14:01:23.365Z,12.63
2019-04-14T14:03:50.488Z,12.20
2019-04-14T14:06:17.516Z,12.77
2019-04-14T14:08:44.555Z,12.90
2019-04-14T14:11:39.923Z,13.57
2019-04-14T14:14:26.580Z,14.93
2019-04-14T14:17:22.347Z,13.50
2019-04-14T14:20:20.959Z,13.80
2019-04-14T14:22:59.886Z,12.87
2019-04-14T14:25:31.838Z,13.87
2019-04-14T14:27:58.915Z,14.03
2019-04-14T14:30:25.992Z,12.63
2019-04-14T14:32:53.068Z,13.57
2019-04-14T14:35:20.140Z,14.47
2019-04-14T14:37:47.242Z,14.30
2019-04-14T14:40:14.919Z,13.90
2019-04-14T14:42:42.003Z,14.23
2019-04-14T14:45:17.147Z,14.63
2019-04-14T14:47:50.469Z,15.07
2019-04-14T14:50:21.777Z,16.87
2019-04-14T14:52:49.026Z,15.37
2019-04-14T14:55:16.113Z,15.27
2019-04-14T14:57:43.223Z,14.70
2019-04-14T15:00:30.479Z,15.23
2019-04-14T15:02:57.647Z,14.60
2019-04-14T15:05:24.726Z,15.60
2019-04-14T15:07:51.811Z,15.47
2019-04-14T15:10:18.924Z,15.17
2019-04-14T15:12:46.013Z,15.30
2019-04-14T15:15:13.211Z,16.03
2019-04-14T15:17:40.371Z,16.90
2019-04-14T15:20:07.541Z,17.07
2019-04-14T15:22:34.619Z,15.50
2019-04-14T15:25:01.703Z,15.03
2019-04-14T15:27:28.764Z,15.07
2019-04-14T15:29:55.902Z,14.43
2019-04-14T15:32:22.976Z,15.17
2019-04-14T15:34:50.061Z,14.83
2019-04-14T15:37:17.144Z,14.67
2019-04-14T15:39:44.268Z,15.03
2019-04-14T15:42:11.370Z,15.53
2019-04-14T15:44:38.504Z,14.23
2019-04-14T15:47:05.677Z,15.63
2019-04-14T15:49:32.795Z,15.50
2019-04-14T15:51:59.917Z,14.77
2019-04-14T15:54:27.024Z,14.33
2019-04-14T15:57:10.563Z,15.47
2019-04-14T16:00:02.149Z,14.13
2019-04-14T16:02:34.230Z,14.70
2019-04-14T16:05:17.530Z,15.67
2019-04-14T16:08:07.052Z,15.27
2019-04-14T16:11:02.677Z,15.70
2019-04-14T16:13:33.544Z,15.67
2019-04-14T16:16:10.209Z,15.97
2019-04-14T16:19:12.783Z,13.77
2019-04-14T16:21:39.890Z,13.63
2019-04-14T16:24:07.203Z,14.00
2019-04-14T16:27:02.919Z,13.73
2019-04-14T16:29:35.226Z,15.27
2019-04-14T16:32:27.698Z,13.97
2019-04-14T16:35:05.181Z,13.20
2019-04-14T16:37:32.267Z,13.97
2019-04-14T16:39:59.312Z,13.90
2019-04-14T16:42:26.386Z,14.90
2019-04-14T16:44:53.579Z,13.60
2019-04-14T16:47:20.923Z,13.10
2019-04-14T16:49:47.977Z,13.17
2019-04-14T16:52:38.340Z,13.70
2019-04-14T16:55:15.423Z,12.60
2019-04-14T16:58:07.967Z,12.93
2019-04-14T17:00:37.871Z,13.37
2019-04-14T17:03:04.962Z,13.13
2019-04-14T17:05:32.045Z,13.37
2019-04-14T17:07:59.100Z,13.17
2019-04-14T17:10:26.209Z,13.23
2019-04-14T17:12:53.444Z,12.40
2019-04-14T17:16:02.285Z,12.30
2019-04-14T17:18:43.332Z,12.60
2019-04-14T17:21:35.881Z,12.07
2019-04-14T17:24:22.522Z,13.63
2019-04-14T17:26:57.035Z,11.27
2019-04-14T17:29:43.680Z,12.50
2019-04-14T17:32:30.349Z,12.03
2019-04-14T17:35:07.282Z,12.43
2019-04-14T17:37:48.007Z,13.13
2019-04-14T17:40:37.324Z,11.70
2019-04-14T17:43:08.998Z,11.63
2019-04-14T17:46:04.531Z,11.53
2019-04-14T17:49:00.258Z,12.63
2019-04-14T17:51:35.645Z,13.23
2019-04-14T17:54:13.362Z,13.53
2019-04-14T17:56:49.260Z,13.60
2019-04-14T17:59:29.765Z,13.80
2019-04-14T18:02:01.149Z,14.40
2019-04-14T18:04:50.718Z,13.03
2019-04-14T18:07:21.255Z,13.87
2019-04-14T18:10:13.681Z,13.60
2019-04-14T18:12:56.960Z,13.07
2019-04-14T18:15:45.505Z,13.37
2019-04-14T18:18:35.042Z,13.07
2019-04-14T18:21:05.102Z,12.60
2019-04-14T18:23:32.364Z,13.53
2019-04-14T18:25:59.534Z,13.83
2019-04-14T18:28:44.114Z,13.83
2019-04-14T18:31:33.514Z,13.30
2019-04-14T18:34:29.068Z,13.27
2019-04-14T18:36:59.451Z,13.40
2019-04-14T18:39:44.782Z,13.40
2019-04-14T18:42:31.446Z,13.03
2019-04-14T18:45:14.042Z,14.03
2019-04-14T18:47:46.547Z,13.50
2019-04-14T18:50:19.352Z,13.77
2019-04-14T18:52:59.976Z,14.60
2019-04-14T18:55:52.830Z,13.80
2019-04-14T18:58:39.537Z,15.30
2019-04-14T19:01:15.606Z,14.27
2019-04-14T19:03:42.942Z,14.43
2019-04-14T19:06:10.237Z,14.50
2019-04-14T19:08:37.330Z,14.80
2019-04-14T19:11:22.926Z,14.40
2019-04-14T19:13:51.604Z,13.60
2019-04-14T19:16:39.919Z,13.63
2019-04-14T19:19:07.148Z,13.57
2019-04-14T19:21:36.634Z,13.57
2019-04-14T19:24:03.767Z,14.83
2019-04-14T19:26:30.971Z,13.03
2019-04-14T19:28:58.030Z,12.97
2019-04-14T19:31:25.603Z,13.40
2019-04-14T19:33:53.323Z,13.80
2019-04-14T19:36:20.351Z,14.03
2019-04-14T19:38:47.473Z,13.47
2019-04-14T19:41:14.570Z,14.33
2019-04-14T19:43:41.696Z,13.27
2019-04-14T19:46:08.843Z,13.93
2019-04-14T19:48:36.245Z,11.97
2019-04-14T19:51:03.338Z,13.30
2019-04-14T19:53:36.184Z,13.60
2019-04-14T19:56:03.362Z,13.60
2019-04-14T19:58:30.494Z,12.73
2019-04-14T20:00:58.001Z,13.40
2019-04-14T20:03:25.127Z,13.97
2019-04-14T20:05:52.255Z,14.70
2019-04-14T20:08:19.457Z,13.23
2019-04-14T20:10:46.747Z,14.97
2019-04-14T20:13:13.820Z,15.03
2019-04-14T20:15:55.482Z,14.50
2019-04-14T20:18:39.825Z,14.47
2019-04-14T20:21:20.577Z,13.23
2019-04-14T20:24:19.041Z,13.93
2019-04-14T20:26:54.360Z,13.07
2019-04-14T20:29:25.024Z,13.73
2019-04-14T20:31:59.293Z,13.53
2019-04-14T20:34:26.445Z,14.83
2019-04-14T20:36:53.683Z,12.77
2019-04-14T20:39:21.250Z,13.67
2019-04-14T20:41:48.573Z,14.10
2019-04-14T20:44:15.749Z,13.37
2019-04-14T20:46:45.066Z,13.10
2019-04-14T20:49:12.439Z,14.33
2019-04-14T20:51:39.582Z,13.77
2019-04-14T20:54:06.758Z,13.23
2019-04-14T20:56:35.032Z,13.23
2019-04-14T20:59:33.012Z,14.00
2019-04-14T21:02:18.420Z,13.27
2019-04-14T21:04:53.123Z,13.97
2019-04-14T21:07:39.811Z,14.63
2019-04-14T21:10:29.429Z,13.77
2019-04-14T21:13:14.695Z,14.30
2019-04-14T21:15:46.256Z,13.17
2019-04-14T21:18:31.181Z,13.67
2019-04-14T21:21:08.216Z,14.20
2019-04-14T21:23:54.867Z,13.47
2019-04-14T21:26:49.188Z,14.97
2019-04-14T21:29:34.456Z,13.73
2019-04-14T21:32:10.177Z,14.07
2019-04-14T21:35:23.138Z,14.47
2019-04-14T21:37:57.427Z,12.40
2019-04-14T21:40:42.705Z,13.63
2019-04-14T21:43:09.898Z,14.07
2019-04-14T21:45:37.007Z,14.13
2019-04-14T21:48:04.152Z,14.43
2019-04-14T21:50:31.350Z,12.67
2019-04-14T21:52:58.657Z,12.40
2019-04-14T21:55:25.782Z,11.97
2019-04-14T21:58:01.068Z,12.80
2019-04-14T22:01:24.660Z,13.07
2019-04-14T22:04:15.254Z,12.27
2019-04-14T22:06:43.944Z,12.53
2019-04-14T22:09:17.479Z,11.33
2019-04-14T22:11:44.771Z,13.40
2019-04-14T22:14:11.861Z,12.70
2019-04-14T22:16:38.953Z,11.70
2019-04-14T22:19:24.555Z,12.40
2019-04-14T22:21:51.602Z,12.40
2019-04-14T22:24:18.666Z,12.93
2019-04-14T22:26:45.763Z,11.90
2019-04-14T22:29:12.824Z,12.10
2019-04-14T22:31:39.916Z,12.20
2019-04-14T22:34:06.997Z,12.93
2019-04-14T22:36:34.097Z,13.10
2019-04-14T22:39:01.510Z,11.10
2019-04-14T22:41:33.375Z,11.53
2019-04-14T22:44:00.499Z,10.87
2019-04-14T22:46:27.571Z,11.73
2019-04-14T22:48:54.655Z,12.27
2019-04-14T22:51:21.988Z,12.27
2019-04-14T22:53:49.131Z,13.63
2019-04-14T22:56:16.225Z,12.60
2019-04-14T22:58:43.451Z,12.93
2019-04-14T23:01:23.199Z,12.40
2019-04-14T23:04:09.854Z,13.63
2019-04-14T23:07:05.421Z,12.63
2019-04-14T23:09:49.160Z,12.57
2019-04-14T23:12:37.315Z,12.63
2019-04-14T23:15:42.613Z,13.03
2019-04-14T23:18:29.273Z,13.27
2019-04-14T23:21:18.860Z,12.47
2019-04-14T23:24:03.661Z,11.67
2019-04-14T23:26:30.806Z,12.57
2019-04-14T23:28:59.011Z,13.87
2019-04-14T23:31:26.164Z,12.63
2019-04-14T23:33:53.210Z,12.87
2019-04-14T23:36:20.273Z,12.73
2019-04-14T23:38:47.359Z,13.77
2019-04-14T23:41:14.558Z,13.30
2019-04-14T23:43:41.605Z,15.10
2019-04-14T23:46:12.909Z,13.43
2019-04-14T23:48:39.987Z,12.67
2019-04-14T23:51:14.320Z,13.10
2019-04-14T23:53:41.374Z,13.13
2019-04-14T23:56:08.450Z,13.13
2019-04-14T23:58:35.560Z,12.90
